Time;durP1;ratioP1;P1;durP2;ratioP2;P2;SDS_P1;SDS_P2;PMS_P1;PMS_P2;Temp;Humidity;BMP_temperature;BMP_pressure;BME280_temperature;BME280_humidity;BME280_pressure;Samples;Min_cycle;Max_cycle;Signal;HPM_P1;HPM_P2
2023/12/15 00:00:18;;;;;;;0.10;0.10;;;;;;;;;;5028245;28;20050;-79
2023/12/15 00:02:45;;;;;;;0.20;0.20;;;;;;;;;;5027177;28;20585;-79
2023/12/15 00:05:12;;;;;;;0.10;0.10;;;;;;;;;;5038323;28;20061;-79
2023/12/15 00:07:38;;;;;;;0.20;0.20;;;;;;;;;;5027664;28;20060;-79
2023/12/15 00:10:05;;;;;;;0.10;0.10;;;;;;;;;;5028831;28;20515;-79
2023/12/15 00:12:32;;;;;;;0.17;0.17;;;;;;;;;;5024703;28;20046;-79
2023/12/15 00:14:58;;;;;;;0.25;0.25;;;;;;;;;;5027645;28;20503;-79
2023/12/15 00:17:24;;;;;;;0.10;0.10;;;;;;;;;;5028929;28;20080;-79
2023/12/15 00:19:51;;;;;;;0.10;0.10;;;;;;;;;;5028206;28;20050;-79
2023/12/15 00:22:18;;;;;;;0.10;0.10;;;;;;;;;;5028105;28;20053;-79
2023/12/15 00:24:45;;;;;;;0.10;0.10;;;;;;;;;;5030768;28;20201;-79
2023/12/15 00:27:11;;;;;;;0.10;0.10;;;;;;;;;;5028936;28;20058;-79
2023/12/15 00:29:38;;;;;;;0.10;0.10;;;;;;;;;;5029964;28;20131;-79
2023/12/15 00:32:04;;;;;;;0.20;0.20;;;;;;;;;;5032097;28;20196;-79
2023/12/15 00:34:31;;;;;;;0.10;0.10;;;;;;;;;;5030515;28;20054;-79
2023/12/15 00:36:57;;;;;;;0.47;0.47;;;;;;;;;;5026005;28;20084;-79
2023/12/15 00:39:23;;;;;;;0.10;0.10;;;;;;;;;;5030591;28;20058;-79
2023/12/15 00:41:50;;;;;;;0.15;0.15;;;;;;;;;;5031722;28;20128;-79
2023/12/15 00:44:16;;;;;;;0.20;0.20;;;;;;;;;;5031088;28;20050;-79
2023/12/15 00:46:43;;;;;;;0.10;0.10;;;;;;;;;;5030769;28;20120;-79
2023/12/15 00:49:09;;;;;;;0.10;0.10;;;;;;;;;;5030628;28;20060;-79
2023/12/15 00:51:36;;;;;;;1.10;1.00;;;;;;;;;;5031006;28;20081;-79
2023/12/15 00:54:02;;;;;;;0.10;0.10;;;;;;;;;;5030640;28;20089;-79
2023/12/15 00:56:29;;;;;;;0.10;0.10;;;;;;;;;;5031295;28;20045;-79
2023/12/15 00:58:55;;;;;;;0.10;0.10;;;;;;;;;;5030648;28;20038;-79
2023/12/15 01:01:22;;;;;;;0.20;0.20;;;;;;;;;;5030561;28;20863;-79
2023/12/15 01:03:48;;;;;;;0.20;0.20;;;;;;;;;;5046083;28;20146;-79
2023/12/15 01:06:15;;;;;;;0.10;0.10;;;;;;;;;;5028798;28;20058;-79
2023/12/15 01:08:41;;;;;;;0.70;0.57;;;;;;;;;;5028290;28;20565;-79
2023/12/15 01:11:08;;;;;;;0.10;0.10;;;;;;;;;;5031429;28;20422;-79
2023/12/15 01:13:34;;;;;;;0.10;0.10;;;;;;;;;;5029179;28;20431;-79
2023/12/15 01:16:03;;;;;;;0.10;0.10;;;;;;;;;;5031206;28;20061;-79
2023/12/15 01:18:29;;;;;;;0.20;0.20;;;;;;;;;;5031259;28;21105;-79
2023/12/15 01:20:56;;;;;;;0.10;0.10;;;;;;;;;;5032131;28;20108;-79
2023/12/15 01:23:22;;;;;;;0.10;0.10;;;;;;;;;;5031427;28;20054;-79
2023/12/15 01:25:49;;;;;;;0.20;0.20;;;;;;;;;;5044438;28;20086;-79
2023/12/15 01:28:15;;;;;;;0.10;0.10;;;;;;;;;;5034863;28;20062;-79
2023/12/15 01:30:41;;;;;;;0.05;0.05;;;;;;;;;;5026284;28;20133;-79
2023/12/15 01:33:08;;;;;;;0.10;0.10;;;;;;;;;;5030579;28;20053;-80
2023/12/15 01:35:34;;;;;;;0.10;0.10;;;;;;;;;;5031642;28;20062;-79
2023/12/15 01:38:01;;;;;;;0.10;0.10;;;;;;;;;;5032752;28;20053;-79
2023/12/15 01:40:27;;;;;;;0.15;0.15;;;;;;;;;;5030659;28;20543;-79
2023/12/15 01:42:57;;;;;;;0.10;0.10;;;;;;;;;;5025337;28;20053;-79
2023/12/15 01:45:23;;;;;;;0.17;0.17;;;;;;;;;;5030166;28;20053;-79
2023/12/15 01:47:50;;;;;;;0.10;0.10;;;;;;;;;;5028203;28;20518;-79
2023/12/15 01:50:16;;;;;;;0.10;0.10;;;;;;;;;;5030126;28;20136;-79
2023/12/15 01:52:43;;;;;;;0.43;0.40;;;;;;;;;;5044200;28;20056;-79
2023/12/15 01:55:09;;;;;;;0.10;0.10;;;;;;;;;;5026081;28;20064;-79
2023/12/15 01:57:36;;;;;;;0.10;0.10;;;;;;;;;;5030300;28;20081;-79
2023/12/15 02:00:06;;;;;;;0.20;0.20;;;;;;;;;;5030775;28;20428;-79
2023/12/15 02:02:33;;;;;;;;;;;;;;;;;;5045861;28;20504;-79
2023/12/15 02:05:00;;;;;;;0.10;0.10;;;;;;;;;;5029205;28;46188;-79
2023/12/15 02:07:27;;;;;;;0.10;0.10;;;;;;;;;;5029394;28;20070;-79
2023/12/15 02:09:53;;;;;;;0.10;0.10;;;;;;;;;;5029909;28;20053;-79
2023/12/15 02:12:20;;;;;;;0.20;0.20;;;;;;;;;;5045872;28;20516;-79
2023/12/15 02:14:46;;;;;;;0.10;0.10;;;;;;;;;;5025414;28;20137;-79
2023/12/15 02:17:12;;;;;;;0.20;0.20;;;;;;;;;;5029376;28;20584;-79
2023/12/15 02:19:39;;;;;;;0.10;0.10;;;;;;;;;;5029049;28;20053;-79
2023/12/15 02:22:05;;;;;;;0.10;0.10;;;;;;;;;;5029569;28;20922;-79
2023/12/15 02:24:32;;;;;;;0.85;0.85;;;;;;;;;;5040806;28;20061;-79
2023/12/15 02:26:58;;;;;;;0.20;0.20;;;;;;;;;;5029117;28;20110;-78
2023/12/15 02:29:26;;;;;;;0.10;0.10;;;;;;;;;;5043388;28;20582;-78
2023/12/15 02:31:53;;;;;;;0.10;0.10;;;;;;;;;;5026176;28;20496;-78
2023/12/15 02:34:20;;;;;;;0.10;0.10;;;;;;;;;;5027521;28;20553;-77
2023/12/15 02:36:46;;;;;;;0.10;0.10;;;;;;;;;;5020290;28;20061;-77
2023/12/15 02:39:12;;;;;;;0.10;0.10;;;;;;;;;;5028253;28;20078;-78
2023/12/15 02:41:39;;;;;;;0.38;0.38;;;;;;;;;;5027926;28;20133;-78
2023/12/15 02:44:05;;;;;;;0.10;0.10;;;;;;;;;;5027752;28;20208;-78
2023/12/15 02:46:35;;;;;;;0.20;0.20;;;;;;;;;;5034313;28;20050;-77
2023/12/15 02:49:02;;;;;;;0.35;0.35;;;;;;;;;;5019272;28;20054;-78
2023/12/15 02:51:29;;;;;;;0.10;0.10;;;;;;;;;;5028223;28;20137;-78
2023/12/15 02:53:57;;;;;;;0.75;0.75;;;;;;;;;;5027110;28;20053;-77
2023/12/15 02:56:24;;;;;;;0.50;0.50;;;;;;;;;;5027227;28;20100;-78
2023/12/15 02:58:50;;;;;;;0.15;0.15;;;;;;;;;;5027101;28;20050;-77
2023/12/15 03:01:17;;;;;;;0.10;0.10;;;;;;;;;;5027802;28;20069;-76
2023/12/15 03:03:43;;;;;;;0.10;0.10;;;;;;;;;;5028718;28;20057;-76
2023/12/15 03:06:10;;;;;;;0.10;0.10;;;;;;;;;;5027310;28;20053;-76
2023/12/15 03:08:36;;;;;;;0.10;0.10;;;;;;;;;;5025725;28;20153;-76
2023/12/15 03:11:03;;;;;;;0.10;0.10;;;;;;;;;;5025598;28;20144;-78
2023/12/15 03:13:29;;;;;;;0.10;0.10;;;;;;;;;;5039155;28;20054;-76
2023/12/15 03:16:02;;;;;;;0.10;0.10;;;;;;;;;;5040150;28;20133;-76
2023/12/15 03:18:29;;;;;;;0.10;0.10;;;;;;;;;;5027669;28;20057;-76
2023/12/15 03:20:55;;;;;;;0.10;0.10;;;;;;;;;;5024622;28;20155;-77
2023/12/15 03:23:22;;;;;;;0.85;0.55;;;;;;;;;;5028020;28;20050;-76
2023/12/15 03:25:48;;;;;;;3.25;3.03;;;;;;;;;;5025819;28;20062;-76
2023/12/15 03:28:15;;;;;;;0.10;0.10;;;;;;;;;;5026921;28;20050;-76
2023/12/15 03:30:42;;;;;;;0.43;0.43;;;;;;;;;;5027735;28;20153;-76
2023/12/15 03:33:08;;;;;;;0.10;0.10;;;;;;;;;;5027487;28;20061;-77
2023/12/15 03:35:35;;;;;;;2.72;1.35;;;;;;;;;;5027925;28;20054;-76
2023/12/15 03:38:02;;;;;;;0.10;0.10;;;;;;;;;;5029736;28;20045;-76
2023/12/15 03:40:29;;;;;;;0.10;0.10;;;;;;;;;;5026994;28;20567;-77
2023/12/15 03:42:55;;;;;;;0.10;0.10;;;;;;;;;;5024757;28;20105;-76
2023/12/15 03:45:23;;;;;;;0.17;0.17;;;;;;;;;;5027514;28;20145;-76
2023/12/15 03:47:50;;;;;;;0.10;0.10;;;;;;;;;;5027300;28;20512;-78
2023/12/15 03:50:16;;;;;;;0.30;0.30;;;;;;;;;;5024918;28;20053;-76
2023/12/15 03:52:43;;;;;;;0.10;0.10;;;;;;;;;;5025371;28;20058;-76
2023/12/15 03:55:09;;;;;;;0.15;0.15;;;;;;;;;;5030093;28;20054;-77
2023/12/15 03:57:36;;;;;;;0.10;0.10;;;;;;;;;;5027264;28;20782;-76
2023/12/15 04:00:03;;;;;;;0.50;0.50;;;;;;;;;;5031370;28;20082;-76
2023/12/15 04:02:29;;;;;;;0.10;0.10;;;;;;;;;;5030387;28;20513;-76
2023/12/15 04:04:55;;;;;;;0.40;0.40;;;;;;;;;;5030403;28;20061;-76
2023/12/15 04:07:22;;;;;;;0.10;0.10;;;;;;;;;;5030548;28;20062;-77
2023/12/15 04:09:48;;;;;;;0.10;0.10;;;;;;;;;;5030914;28;20105;-76
2023/12/15 04:12:15;;;;;;;0.13;0.13;;;;;;;;;;5028887;28;20545;-76
2023/12/15 04:14:41;;;;;;;1.27;1.17;;;;;;;;;;5030108;28;20687;-76
2023/12/15 04:17:07;;;;;;;0.30;0.30;;;;;;;;;;5029781;28;20058;-76
2023/12/15 04:19:34;;;;;;;0.30;0.30;;;;;;;;;;5030331;28;20599;-76
2023/12/15 04:22:00;;;;;;;0.28;0.25;;;;;;;;;;5029459;28;20576;-76
2023/12/15 04:24:27;;;;;;;0.50;0.50;;;;;;;;;;5029672;28;20061;-77
2023/12/15 04:26:53;;;;;;;0.10;0.10;;;;;;;;;;5027205;28;20567;-76
2023/12/15 04:29:20;;;;;;;1.75;1.65;;;;;;;;;;5031417;28;20042;-76
2023/12/15 04:31:46;;;;;;;0.10;0.10;;;;;;;;;;5030380;28;20058;-77
2023/12/15 04:34:12;;;;;;;0.10;0.10;;;;;;;;;;5029777;28;20065;-76
2023/12/15 04:36:39;;;;;;;1.05;0.73;;;;;;;;;;5030345;28;20089;-76
2023/12/15 04:39:07;;;;;;;0.90;0.80;;;;;;;;;;5029991;28;20049;-76
2023/12/15 04:41:33;;;;;;;0.10;0.10;;;;;;;;;;5029759;28;20133;-76
2023/12/15 04:43:59;;;;;;;0.43;0.35;;;;;;;;;;5029522;28;20841;-76
2023/12/15 04:46:27;;;;;;;0.10;0.10;;;;;;;;;;5029946;28;20054;-77
2023/12/15 04:48:54;;;;;;;0.10;0.10;;;;;;;;;;5030517;28;20061;-76
2023/12/15 04:51:21;;;;;;;0.10;0.10;;;;;;;;;;5029894;28;20049;-76
2023/12/15 04:53:48;;;;;;;0.10;0.10;;;;;;;;;;5029446;28;20614;-76
2023/12/15 04:56:15;;;;;;;0.40;0.22;;;;;;;;;;5029567;28;20050;-79
2023/12/15 04:58:41;;;;;;;0.10;0.10;;;;;;;;;;5029942;28;20056;-76
2023/12/15 05:01:12;;;;;;;0.10;0.10;;;;;;;;;;5029461;28;20054;-76
2023/12/15 05:03:40;;;;;;;0.20;0.20;;;;;;;;;;5030656;28;20504;-77
2023/12/15 05:06:15;;;;;;;0.10;0.10;;;;;;;;;;5028993;28;20057;-76
2023/12/15 05:08:41;;;;;;;0.10;0.10;;;;;;;;;;5029181;28;20046;-76
2023/12/15 05:11:08;;;;;;;0.17;0.17;;;;;;;;;;5029910;28;20059;-76
2023/12/15 05:13:34;;;;;;;0.10;0.10;;;;;;;;;;5037870;23;20053;-78
2023/12/15 05:16:02;;;;;;;0.10;0.10;;;;;;;;;;4997136;28;20050;-77
2023/12/15 05:18:30;;;;;;;0.30;0.30;;;;;;;;;;4986739;28;20082;-78
2023/12/15 05:20:57;;;;;;;0.10;0.10;;;;;;;;;;4983868;28;20065;-78
2023/12/15 05:23:23;;;;;;;0.10;0.10;;;;;;;;;;4988366;28;20493;-77
2023/12/15 05:25:50;;;;;;;0.20;0.20;;;;;;;;;;4992425;28;20055;-77
2023/12/15 05:28:16;;;;;;;0.10;0.10;;;;;;;;;;4975960;28;20042;-76
2023/12/15 05:30:43;;;;;;;0.10;0.10;;;;;;;;;;4993119;28;20078;-77
2023/12/15 05:33:09;;;;;;;0.28;0.28;;;;;;;;;;4977314;28;20046;-77
2023/12/15 05:35:36;;;;;;;0.10;0.10;;;;;;;;;;4995147;28;20140;-77
2023/12/15 05:38:03;;;;;;;0.40;0.40;;;;;;;;;;4992952;28;20050;-77
2023/12/15 05:40:29;;;;;;;1.27;1.13;;;;;;;;;;4992578;28;20055;-77
2023/12/15 05:42:56;;;;;;;0.73;0.73;;;;;;;;;;4992327;28;20053;-77
2023/12/15 05:45:23;;;;;;;0.10;0.10;;;;;;;;;;4993547;28;20089;-77
2023/12/15 05:47:49;;;;;;;0.10;0.10;;;;;;;;;;4974162;28;20126;-77
2023/12/15 05:50:16;;;;;;;0.10;0.10;;;;;;;;;;4993415;28;20059;-77
2023/12/15 05:52:42;;;;;;;0.35;0.35;;;;;;;;;;4992113;28;20061;-77
2023/12/15 05:55:09;;;;;;;0.10;0.10;;;;;;;;;;4993078;28;20065;-77
2023/12/15 05:57:35;;;;;;;0.10;0.10;;;;;;;;;;4993842;28;20090;-77
2023/12/15 06:00:03;;;;;;;0.10;0.10;;;;;;;;;;4993336;28;20055;-77
2023/12/15 06:02:31;;;;;;;0.10;0.10;;;;;;;;;;4991285;28;20062;-77
2023/12/15 06:04:58;;;;;;;0.20;0.20;;;;;;;;;;4984800;28;20065;-77
2023/12/15 06:07:25;;;;;;;0.10;0.10;;;;;;;;;;4979195;28;20066;-77
2023/12/15 06:09:52;;;;;;;0.10;0.10;;;;;;;;;;4982333;28;20086;-77
2023/12/15 06:12:18;;;;;;;0.17;0.17;;;;;;;;;;4977586;28;20062;-77
2023/12/15 06:14:45;;;;;;;0.30;0.30;;;;;;;;;;4985307;28;20035;-77
2023/12/15 06:17:11;;;;;;;0.20;0.17;;;;;;;;;;4985151;28;20054;-77
2023/12/15 06:19:39;;;;;;;0.30;0.30;;;;;;;;;;4977156;28;20043;-77
2023/12/15 06:22:05;;;;;;;0.10;0.10;;;;;;;;;;4975185;28;20051;-77
2023/12/15 06:24:33;;;;;;;0.63;0.63;;;;;;;;;;4976753;28;20061;-77
2023/12/15 06:26:59;;;;;;;0.10;0.10;;;;;;;;;;4978902;28;20063;-77
2023/12/15 06:29:26;;;;;;;0.10;0.10;;;;;;;;;;4979535;28;20110;-77
2023/12/15 06:31:52;;;;;;;0.28;0.28;;;;;;;;;;4985926;28;20054;-77
2023/12/15 06:34:19;;;;;;;0.88;0.82;;;;;;;;;;4994242;28;20058;-77
2023/12/15 06:36:46;;;;;;;0.10;0.10;;;;;;;;;;4976710;28;20066;-77
2023/12/15 06:39:13;;;;;;;0.10;0.10;;;;;;;;;;4977903;28;20094;-77
2023/12/15 06:41:39;;;;;;;0.65;0.65;;;;;;;;;;4984741;28;20105;-77
2023/12/15 06:44:09;;;;;;;0.20;0.20;;;;;;;;;;4984475;28;20059;-77
2023/12/15 06:46:38;;;;;;;0.10;0.10;;;;;;;;;;4979314;28;20055;-77
2023/12/15 06:49:08;;;;;;;0.10;0.10;;;;;;;;;;4977921;28;20062;-77
2023/12/15 06:51:34;;;;;;;0.00;0.00;;;;;;;;;;4983405;28;20055;-77
2023/12/15 06:54:01;;;;;;;0.10;0.10;;;;;;;;;;4991995;28;20054;-77
2023/12/15 06:56:27;;;;;;;0.10;0.10;;;;;;;;;;4999025;28;20520;-77
2023/12/15 06:58:54;;;;;;;0.10;0.10;;;;;;;;;;4986993;28;20065;-77
2023/12/15 07:01:21;;;;;;;1.45;0.98;;;;;;;;;;4977158;28;20055;-76
2023/12/15 07:03:48;;;;;;;0.10;0.10;;;;;;;;;;4991710;28;20063;-77
2023/12/15 07:06:17;;;;;;;0.30;0.30;;;;;;;;;;4991180;28;20063;-77
2023/12/15 07:08:43;;;;;;;0.10;0.10;;;;;;;;;;4983735;28;20054;-77
2023/12/15 07:11:10;;;;;;;0.45;0.45;;;;;;;;;;4994891;28;20079;-77
2023/12/15 07:13:36;;;;;;;0.10;0.10;;;;;;;;;;4981467;28;20067;-77
2023/12/15 07:16:03;;;;;;;0.10;0.10;;;;;;;;;;4989540;28;20102;-77
2023/12/15 07:18:32;;;;;;;0.98;0.95;;;;;;;;;;4976687;28;20055;-77
2023/12/15 07:20:59;;;;;;;0.10;0.10;;;;;;;;;;4987486;28;20057;-77
2023/12/15 07:23:25;;;;;;;0.20;0.20;;;;;;;;;;4985371;28;20055;-77
2023/12/15 07:25:52;;;;;;;0.10;0.10;;;;;;;;;;4982617;28;20059;-77
2023/12/15 07:28:18;;;;;;;0.10;0.10;;;;;;;;;;4982407;28;20110;-77
2023/12/15 07:30:44;;;;;;;0.10;0.10;;;;;;;;;;4979553;28;21228;-77
2023/12/15 07:33:11;;;;;;;0.20;0.20;;;;;;;;;;4965310;28;20089;-76
2023/12/15 07:35:37;;;;;;;0.10;0.10;;;;;;;;;;4973991;28;20058;-77
2023/12/15 07:38:04;;;;;;;0.10;0.10;;;;;;;;;;4988712;28;20054;-77
2023/12/15 07:40:31;;;;;;;0.20;0.20;;;;;;;;;;4970409;28;20544;-76
2023/12/15 07:42:57;;;;;;;0.40;0.40;;;;;;;;;;4968625;28;20054;-76
2023/12/15 07:45:24;;;;;;;0.10;0.10;;;;;;;;;;4985596;28;20062;-76
2023/12/15 07:47:52;;;;;;;0.25;0.25;;;;;;;;;;4968604;28;20138;-76
2023/12/15 07:50:18;;;;;;;0.10;0.10;;;;;;;;;;4968492;28;20074;-76
2023/12/15 07:52:45;;;;;;;0.13;0.13;;;;;;;;;;4968615;28;20584;-75
2023/12/15 07:55:11;;;;;;;0.22;0.22;;;;;;;;;;4985849;28;20105;-76
2023/12/15 07:57:39;;;;;;;0.52;0.50;;;;;;;;;;4972247;28;20055;-76
2023/12/15 08:00:10;;;;;;;3.15;1.75;;;;;;;;;;4965486;28;20051;-76
2023/12/15 08:02:39;;;;;;;1.75;1.65;;;;;;;;;;4984676;28;20063;-76
2023/12/15 08:05:06;;;;;;;0.20;0.20;;;;;;;;;;4968782;28;20157;-76
2023/12/15 08:07:33;;;;;;;0.20;0.20;;;;;;;;;;4967906;28;20063;-76
2023/12/15 08:10:00;;;;;;;0.28;0.28;;;;;;;;;;4976076;28;20058;-76
2023/12/15 08:12:27;;;;;;;0.47;0.47;;;;;;;;;;4967136;28;20106;-76
2023/12/15 08:14:53;;;;;;;0.40;0.40;;;;;;;;;;4980593;28;20071;-76
2023/12/15 08:17:20;;;;;;;1.27;1.17;;;;;;;;;;4967994;28;20055;-76
2023/12/15 08:19:47;;;;;;;0.63;0.63;;;;;;;;;;4965945;28;20055;-75
2023/12/15 08:22:14;;;;;;;0.17;0.17;;;;;;;;;;4965767;28;20143;-76
2023/12/15 08:24:40;;;;;;;1.85;1.23;;;;;;;;;;4982155;28;20150;-76
2023/12/15 08:27:07;;;;;;;0.10;0.10;;;;;;;;;;4953131;28;20047;-77
2023/12/15 08:29:33;;;;;;;0.15;0.15;;;;;;;;;;4970523;28;20524;-78
2023/12/15 08:32:00;;;;;;;0.55;0.55;;;;;;;;;;4972010;28;20117;-78
2023/12/15 08:34:26;;;;;;;0.13;0.13;;;;;;;;;;4993689;28;20927;-76
2023/12/15 08:36:53;;;;;;;0.17;0.17;;;;;;;;;;4975707;28;20050;-78
2023/12/15 08:39:19;;;;;;;0.30;0.30;;;;;;;;;;4972147;28;20130;-77
2023/12/15 08:41:46;;;;;;;0.10;0.10;;;;;;;;;;4972898;28;20053;-77
2023/12/15 08:44:12;;;;;;;0.30;0.30;;;;;;;;;;4974992;28;20050;-78
2023/12/15 08:46:54;;;;;;;0.10;0.10;;;;;;;;;;4993052;28;20545;-78
2023/12/15 08:49:20;;;;;;;0.30;0.30;;;;;;;;;;4981001;28;20114;-78
2023/12/15 08:51:47;;;;;;;0.10;0.10;;;;;;;;;;4978086;28;20583;-77
2023/12/15 08:54:14;;;;;;;0.10;0.10;;;;;;;;;;4993160;28;20105;-77
2023/12/15 08:56:43;;;;;;;0.10;0.10;;;;;;;;;;4973954;28;20065;-77
2023/12/15 08:59:09;;;;;;;0.20;0.20;;;;;;;;;;4988767;28;20058;-75
2023/12/15 09:01:38;;;;;;;0.13;0.13;;;;;;;;;;4990908;28;20059;-76
2023/12/15 09:04:05;;;;;;;0.10;0.10;;;;;;;;;;4974416;28;20102;-77
2023/12/15 09:06:31;;;;;;;0.10;0.10;;;;;;;;;;4993918;28;20104;-76
2023/12/15 09:09:07;;;;;;;0.10;0.10;;;;;;;;;;4988785;28;20173;-76
2023/12/15 09:11:34;;;;;;;0.10;0.10;;;;;;;;;;4987628;28;20563;-75
2023/12/15 09:14:01;;;;;;;0.32;0.32;;;;;;;;;;4986772;28;20050;-76
2023/12/15 09:16:28;;;;;;;0.10;0.10;;;;;;;;;;4987737;28;20515;-76
2023/12/15 09:18:54;;;;;;;0.10;0.10;;;;;;;;;;4970079;28;20055;-77
2023/12/15 09:21:21;;;;;;;0.10;0.10;;;;;;;;;;4971239;28;20086;-76
2023/12/15 09:23:47;;;;;;;0.10;0.10;;;;;;;;;;4981928;28;20066;-77
2023/12/15 09:26:14;;;;;;;0.10;0.10;;;;;;;;;;4989641;28;20050;-77
2023/12/15 09:28:40;;;;;;;0.10;0.10;;;;;;;;;;4988430;28;20059;-77
2023/12/15 09:31:07;;;;;;;0.80;0.80;;;;;;;;;;4990716;28;20521;-76
2023/12/15 09:33:34;;;;;;;0.20;0.20;;;;;;;;;;4989110;28;20587;-76
2023/12/15 09:36:00;;;;;;;0.20;0.20;;;;;;;;;;4991119;28;21059;-77
2023/12/15 09:38:27;;;;;;;0.30;0.30;;;;;;;;;;4994490;28;20055;-78
2023/12/15 09:40:54;;;;;;;0.10;0.10;;;;;;;;;;4976458;28;20051;-78
2023/12/15 09:43:20;;;;;;;0.10;0.10;;;;;;;;;;4993353;28;20054;-78
2023/12/15 09:46:02;;;;;;;0.10;0.10;;;;;;;;;;4991779;28;20066;-78
2023/12/15 09:48:29;;;;;;;0.10;0.10;;;;;;;;;;4993559;28;20091;-77
2023/12/15 09:50:58;;;;;;;0.10;0.10;;;;;;;;;;4981922;28;20085;-79
2023/12/15 09:53:25;;;;;;;0.30;0.30;;;;;;;;;;4978887;28;20050;-78
2023/12/15 09:55:52;;;;;;;0.10;0.10;;;;;;;;;;4974214;28;20098;-79
2023/12/15 09:58:18;;;;;;;0.10;0.10;;;;;;;;;;4976333;28;20059;-79
2023/12/15 10:00:45;;;;;;;0.15;0.15;;;;;;;;;;4995185;28;20146;-79
2023/12/15 10:03:14;;;;;;;0.10;0.10;;;;;;;;;;4978840;28;20059;-79
2023/12/15 10:05:42;;;;;;;0.10;0.10;;;;;;;;;;4994179;28;20082;-79
2023/12/15 10:08:09;;;;;;;0.10;0.10;;;;;;;;;;4995523;28;20113;-79
2023/12/15 10:10:36;;;;;;;0.10;0.10;;;;;;;;;;4993437;28;20122;-78
2023/12/15 10:13:02;;;;;;;0.20;0.20;;;;;;;;;;4994879;28;20134;-78
2023/12/15 10:15:29;;;;;;;0.75;0.75;;;;;;;;;;4996182;28;20046;-79
2023/12/15 10:17:56;;;;;;;0.10;0.10;;;;;;;;;;4995569;28;20059;-79
2023/12/15 10:20:23;;;;;;;0.10;0.10;;;;;;;;;;4995422;28;20525;-78
2023/12/15 10:23:03;;;;;;;0.10;0.10;;;;;;;;;;4983135;28;20134;-79
2023/12/15 10:25:32;;;;;;;0.10;0.10;;;;;;;;;;4970988;28;20573;-78
2023/12/15 10:27:59;;;;;;;0.63;0.38;;;;;;;;;;5003065;28;20055;-79
2023/12/15 10:30:28;;;;;;;0.38;0.38;;;;;;;;;;4972928;28;20831;-79
2023/12/15 10:32:56;;;;;;;0.10;0.10;;;;;;;;;;4992197;28;20151;-80
2023/12/15 10:35:23;;;;;;;0.28;0.28;;;;;;;;;;4976233;28;20066;-79
2023/12/15 10:37:50;;;;;;;0.52;0.52;;;;;;;;;;4993946;28;20059;-79
2023/12/15 10:40:17;;;;;;;0.10;0.10;;;;;;;;;;4976928;28;20062;-79
2023/12/15 10:42:44;;;;;;;0.10;0.10;;;;;;;;;;4978861;28;20084;-79
2023/12/15 10:45:10;;;;;;;0.10;0.10;;;;;;;;;;4995676;28;20057;-79
2023/12/15 10:47:38;;;;;;;2.38;0.68;;;;;;;;;;4996767;28;20060;-79
2023/12/15 10:50:07;;;;;;;0.10;0.10;;;;;;;;;;4993984;28;20058;-79
2023/12/15 10:52:35;;;;;;;0.65;0.60;;;;;;;;;;4991634;28;20055;-78
2023/12/15 10:55:03;;;;;;;1.10;0.75;;;;;;;;;;4986834;28;20050;-77
2023/12/15 10:57:32;;;;;;;1.65;1.55;;;;;;;;;;4990588;28;20691;-75
2023/12/15 11:00:00;;;;;;;0.10;0.10;;;;;;;;;;4985316;28;20062;-76
2023/12/15 11:02:28;;;;;;;0.40;0.40;;;;;;;;;;4984830;28;20062;-76
2023/12/15 11:04:55;;;;;;;0.20;0.20;;;;;;;;;;4984127;28;20137;-76
2023/12/15 11:07:21;;;;;;;0.55;0.55;;;;;;;;;;4984790;28;21774;-76
2023/12/15 11:09:48;;;;;;;4.80;1.65;;;;;;;;;;4968548;28;20059;-76
2023/12/15 11:12:20;;;;;;;0.10;0.10;;;;;;;;;;4985574;28;20062;-77
2023/12/15 11:14:59;;;;;;;0.10;0.10;;;;;;;;;;4983616;28;20934;-76
2023/12/15 11:17:26;;;;;;;0.22;0.20;;;;;;;;;;4984957;28;20598;-77
2023/12/15 11:20:03;;;;;;;1.05;0.65;;;;;;;;;;4985739;28;20047;-77
2023/12/15 11:22:39;;;;;;;0.10;0.10;;;;;;;;;;4984350;28;20055;-76
2023/12/15 11:25:08;;;;;;;0.10;0.10;;;;;;;;;;4982144;28;20054;-76
2023/12/15 11:27:57;;;;;;;0.10;0.10;;;;;;;;;;4984627;28;20062;-77
2023/12/15 11:30:27;;;;;;;0.10;0.10;;;;;;;;;;4982929;28;20145;-77
2023/12/15 11:32:55;;;;;;;0.10;0.10;;;;;;;;;;4987845;28;20054;-77
2023/12/15 11:35:31;;;;;;;0.10;0.10;;;;;;;;;;4986071;28;20109;-77
2023/12/15 11:38:00;;;;;;;0.10;0.10;;;;;;;;;;4985929;28;20059;-77
2023/12/15 11:40:29;;;;;;;0.10;0.10;;;;;;;;;;5069134;23;20133;-82
2023/12/15 11:42:59;;;;;;;0.10;0.10;;;;;;;;;;5006064;28;20051;-79
2023/12/15 11:45:29;;;;;;;0.10;0.10;;;;;;;;;;5005021;28;20859;-80
2023/12/15 11:47:55;;;;;;;0.10;0.10;;;;;;;;;;5010072;28;20038;-80
2023/12/15 11:50:22;;;;;;;0.20;0.20;;;;;;;;;;5011288;28;20153;-80
2023/12/15 11:52:49;;;;;;;0.10;0.10;;;;;;;;;;5010216;28;20055;-80
2023/12/15 11:55:17;;;;;;;0.10;0.10;;;;;;;;;;5009267;28;20109;-80
2023/12/15 11:57:43;;;;;;;0.10;0.10;;;;;;;;;;5003036;28;20061;-80
2023/12/15 12:00:13;;;;;;;0.20;0.20;;;;;;;;;;5002647;28;20055;-80
2023/12/15 12:02:41;;;;;;;0.10;0.10;;;;;;;;;;5008723;28;20058;-80
2023/12/15 12:05:08;;;;;;;0.10;0.10;;;;;;;;;;5009565;28;20077;-79
2023/12/15 12:07:35;;;;;;;0.10;0.10;;;;;;;;;;5005303;28;20181;-80
2023/12/15 12:10:02;;;;;;;0.10;0.10;;;;;;;;;;5007507;28;20047;-80
2023/12/15 12:12:28;;;;;;;0.10;0.10;;;;;;;;;;5011374;28;20062;-80
2023/12/15 12:15:01;;;;;;;0.10;0.10;;;;;;;;;;5012946;28;20682;-80
2023/12/15 12:17:27;;;;;;;0.10;0.10;;;;;;;;;;5012775;28;20058;-79
2023/12/15 12:27:15;;;;;;;0.10;0.10;;;;;;;;;;4907765;29;20646;-79
2023/12/15 12:30:02;;;;;;;0.10;0.10;;;;;;;;;;4866764;29;20733;-82
2023/12/15 12:32:28;;;;;;;0.10;0.10;;;;;;;;;;4858436;29;20879;-82
2023/12/15 12:34:57;;;;;;;0.10;0.10;;;;;;;;;;4853968;29;20103;-82
2023/12/15 12:37:23;;;;;;;0.10;0.10;;;;;;;;;;4862068;29;20160;-83
2023/12/15 12:39:50;;;;;;;0.10;0.10;;;;;;;;;;4858347;29;20086;-82
2023/12/15 12:42:16;;;;;;;0.28;0.28;;;;;;;;;;4860122;29;20046;-81
2023/12/15 12:44:42;;;;;;;0.10;0.10;;;;;;;;;;4860814;29;20094;-82
2023/12/15 12:47:09;;;;;;;0.10;0.10;;;;;;;;;;4856618;29;20054;-81
2023/12/15 12:49:35;;;;;;;0.10;0.10;;;;;;;;;;4853387;29;20245;-81
2023/12/15 12:52:17;;;;;;;0.10;0.10;;;;;;;;;;4851859;29;20060;-81
2023/12/15 12:54:43;;;;;;;0.10;0.10;;;;;;;;;;4858503;29;20063;-82
2023/12/15 12:57:10;;;;;;;0.20;0.20;;;;;;;;;;4858985;29;20180;-81
2023/12/15 12:59:36;;;;;;;0.10;0.10;;;;;;;;;;4858142;29;20069;-81
2023/12/15 13:02:03;;;;;;;0.10;0.10;;;;;;;;;;4872973;28;20040;-81
2023/12/15 13:04:43;;;;;;;0.20;0.20;;;;;;;;;;4937336;28;20067;-81
2023/12/15 13:07:10;;;;;;;0.20;0.20;;;;;;;;;;4978010;28;20152;-81
2023/12/15 13:09:36;;;;;;;0.20;0.20;;;;;;;;;;5023197;28;20064;-81
2023/12/15 13:12:03;;;;;;;0.55;0.55;;;;;;;;;;5006213;28;20038;-81
2023/12/15 13:14:29;;;;;;;0.10;0.10;;;;;;;;;;5020398;28;20058;-81
2023/12/15 13:16:55;;;;;;;0.10;0.10;;;;;;;;;;5016086;28;20137;-81
2023/12/15 13:19:25;;;;;;;0.57;0.57;;;;;;;;;;5017573;28;20064;-81
2023/12/15 13:21:52;;;;;;;0.10;0.10;;;;;;;;;;5016139;28;20101;-81
2023/12/15 13:24:18;;;;;;;0.20;0.20;;;;;;;;;;5018494;28;20894;-80
2023/12/15 13:26:45;;;;;;;0.10;0.10;;;;;;;;;;5019803;28;20066;-81
2023/12/15 13:29:11;;;;;;;0.10;0.10;;;;;;;;;;5014638;28;20050;-80
2023/12/15 13:31:38;;;;;;;0.10;0.10;;;;;;;;;;5010946;28;20057;-81
2023/12/15 13:34:04;;;;;;;0.10;0.10;;;;;;;;;;5013670;28;20039;-79
2023/12/15 13:36:31;;;;;;;0.10;0.10;;;;;;;;;;5009625;28;20524;-79
2023/12/15 13:38:57;;;;;;;0.10;0.10;;;;;;;;;;5004479;28;20085;-80
2023/12/15 13:41:24;;;;;;;0.10;0.10;;;;;;;;;;5011985;28;20082;-80
2023/12/15 13:43:50;;;;;;;0.10;0.10;;;;;;;;;;5012910;28;20054;-81
2023/12/15 13:46:19;;;;;;;0.10;0.10;;;;;;;;;;5014755;28;20066;-80
2023/12/15 13:48:46;;;;;;;0.10;0.10;;;;;;;;;;5012198;28;20053;-80
2023/12/15 13:51:12;;;;;;;0.10;0.10;;;;;;;;;;5008174;28;20966;-80
2023/12/15 13:53:38;;;;;;;0.10;0.10;;;;;;;;;;5005645;28;20137;-80
2023/12/15 13:56:05;;;;;;;0.20;0.20;;;;;;;;;;5004599;28;20056;-81
2023/12/15 13:58:32;;;;;;;0.10;0.10;;;;;;;;;;5007146;28;20059;-80
2023/12/15 14:00:58;;;;;;;0.10;0.10;;;;;;;;;;5009205;28;20136;-80
2023/12/15 14:03:24;;;;;;;0.10;0.10;;;;;;;;;;5005285;28;20054;-80
2023/12/15 14:05:52;;;;;;;0.10;0.10;;;;;;;;;;5010423;28;20057;-80
2023/12/15 14:08:19;;;;;;;0.22;0.22;;;;;;;;;;5012123;28;20136;-81
2023/12/15 14:10:46;;;;;;;0.10;0.10;;;;;;;;;;5004136;28;20186;-80
2023/12/15 14:13:13;;;;;;;0.10;0.10;;;;;;;;;;5002989;28;20053;-80
2023/12/15 14:15:39;;;;;;;0.10;0.10;;;;;;;;;;5005333;28;20050;-80
2023/12/15 14:18:07;;;;;;;0.10;0.10;;;;;;;;;;5003120;28;20529;-81
2023/12/15 14:20:34;;;;;;;0.10;0.10;;;;;;;;;;5003367;28;20055;-81
2023/12/15 14:23:00;;;;;;;0.10;0.10;;;;;;;;;;5003023;28;20061;-81
2023/12/15 14:25:27;;;;;;;0.13;0.13;;;;;;;;;;4998935;28;20054;-80
2023/12/15 14:27:53;;;;;;;0.15;0.15;;;;;;;;;;4988411;28;20062;-81
2023/12/15 14:30:19;;;;;;;0.10;0.10;;;;;;;;;;5005962;28;20062;-81
2023/12/15 14:32:47;;;;;;;0.10;0.10;;;;;;;;;;5006031;28;20064;-81
2023/12/15 14:35:14;;;;;;;0.10;0.10;;;;;;;;;;5005782;28;20142;-80
2023/12/15 14:37:41;;;;;;;0.10;0.10;;;;;;;;;;5004190;28;20246;-81
2023/12/15 14:40:07;;;;;;;0.10;0.10;;;;;;;;;;5004742;28;20207;-81
2023/12/15 14:42:34;;;;;;;0.10;0.10;;;;;;;;;;5005418;28;20061;-81
2023/12/15 14:45:01;;;;;;;0.10;0.10;;;;;;;;;;5006364;28;20054;-81
2023/12/15 14:47:28;;;;;;;0.17;0.17;;;;;;;;;;5005191;28;20050;-81
2023/12/15 14:49:54;;;;;;;0.10;0.10;;;;;;;;;;5005175;28;20107;-80